createdAt,value
2023-02-16T00:00:00.400Z,3.8
2023-02-16T00:05:00.515Z,3.8
2023-02-16T00:10:00.538Z,3.8
2023-02-16T00:15:00.466Z,3.8
2023-02-16T00:20:00.527Z,3.8
2023-02-16T00:25:00.561Z,3.9
2023-02-16T00:30:00.546Z,3.8
2023-02-16T00:35:00.552Z,3.8
2023-02-16T00:40:00.488Z,3.9
2023-02-16T00:45:00.526Z,3.8
2023-02-16T00:50:00.500Z,3.8
2023-02-16T00:55:00.556Z,3.8
2023-02-16T01:00:00.553Z,3.8
2023-02-16T01:05:00.521Z,3.8
2023-02-16T01:10:00.493Z,3.8
2023-02-16T01:15:00.438Z,3.8
2023-02-16T01:20:00.549Z,3.8
2023-02-16T01:25:00.518Z,3.7
2023-02-16T01:30:00.543Z,3.7
2023-02-16T01:35:00.523Z,3.8
2023-02-16T01:40:00.557Z,3.7
2023-02-16T01:45:00.520Z,3.7
2023-02-16T01:50:03.128Z,3.8
2023-02-16T01:55:00.498Z,3.8
2023-02-16T02:00:00.460Z,3.8
2023-02-16T02:05:00.514Z,3.7
2023-02-16T02:10:00.500Z,3.7
2023-02-16T02:15:00.490Z,3.7
2023-02-16T02:20:00.431Z,3.7
2023-02-16T02:25:00.399Z,3.7
2023-02-16T02:30:00.658Z,3.7
2023-02-16T02:35:00.481Z,3.6
2023-02-16T02:40:00.513Z,3.6
2023-02-16T02:45:00.543Z,3.6
2023-02-16T02:50:00.509Z,3.6
2023-02-16T02:55:00.535Z,3.6
2023-02-16T03:00:00.572Z,3.6
2023-02-16T03:05:00.493Z,3.6
2023-02-16T03:10:00.495Z,3.6
2023-02-16T03:15:00.520Z,3.6
2023-02-16T03:20:00.437Z,3.6
2023-02-16T03:25:00.580Z,3.6
2023-02-16T03:30:00.516Z,3.6
2023-02-16T03:35:00.544Z,3.5
2023-02-16T03:40:00.498Z,3.5
2023-02-16T03:45:00.495Z,3.5
2023-02-16T03:50:00.558Z,3.5
2023-02-16T03:55:00.498Z,3.6
2023-02-16T04:00:00.461Z,3.6
2023-02-16T04:05:00.365Z,3.6
2023-02-16T04:10:00.407Z,3.5
2023-02-16T04:15:00.458Z,3.5
2023-02-16T04:20:00.553Z,3.5
2023-02-16T04:25:00.605Z,3.5
2023-02-16T04:30:00.617Z,3.5
2023-02-16T04:35:00.480Z,3.5
2023-02-16T04:40:00.428Z,3.6
2023-02-16T04:45:00.436Z,3.5
2023-02-16T04:50:00.581Z,3.5
2023-02-16T04:55:00.550Z,3.5
2023-02-16T05:00:00.426Z,3.5
2023-02-16T05:05:00.425Z,3.5
2023-02-16T05:10:00.430Z,3.5
2023-02-16T05:15:00.466Z,3.5
2023-02-16T05:20:00.547Z,3.5
2023-02-16T05:25:00.402Z,3.5
2023-02-16T05:30:00.616Z,3.5
2023-02-16T05:35:00.469Z,3.5
2023-02-16T05:40:00.552Z,3.5
2023-02-16T05:45:00.500Z,3.5
2023-02-16T05:50:00.590Z,3.5
2023-02-16T05:55:00.451Z,3.5
2023-02-16T06:00:00.463Z,3.5
2023-02-16T06:05:00.507Z,3.5
2023-02-16T06:10:00.510Z,3.5
2023-02-16T06:15:00.608Z,3.5
2023-02-16T06:20:00.564Z,3.5
2023-02-16T06:25:00.453Z,3.5
2023-02-16T06:30:00.610Z,3.5
2023-02-16T06:35:00.525Z,3.5
2023-02-16T06:40:00.514Z,3.5
2023-02-16T06:45:00.488Z,3.5
2023-02-16T06:50:00.505Z,3.5
2023-02-16T06:55:01.175Z,3.5
2023-02-16T07:00:00.491Z,3.5
2023-02-16T07:05:00.496Z,3.5
2023-02-16T07:10:00.423Z,3.5
2023-02-16T07:15:00.516Z,3.6
2023-02-16T07:20:00.586Z,3.6
2023-02-16T07:25:00.545Z,3.6
2023-02-16T07:30:00.447Z,3.7
2023-02-16T07:35:00.419Z,3.7
2023-02-16T07:40:00.488Z,3.7
2023-02-16T07:45:00.527Z,3.7
2023-02-16T07:50:00.443Z,3.8
2023-02-16T07:55:00.536Z,3.8
2023-02-16T08:00:00.472Z,4.1
2023-02-16T08:05:00.439Z,4.3
2023-02-16T08:10:00.437Z,4.5
2023-02-16T08:15:00.526Z,4.5
2023-02-16T08:20:00.482Z,4.6
2023-02-16T08:25:00.503Z,4.8
2023-02-16T08:30:00.484Z,5
2023-02-16T08:35:00.438Z,5.1
2023-02-16T08:40:00.426Z,5.2
2023-02-16T08:45:00.413Z,5.4
2023-02-16T08:50:00.440Z,5.5
2023-02-16T08:55:00.432Z,5.5
2023-02-16T09:05:00.479Z,5.5
2023-02-16T09:10:00.431Z,5.6
2023-02-16T09:15:00.586Z,5.6
2023-02-16T09:20:00.460Z,5.8
2023-02-16T09:25:00.468Z,5.8
2023-02-16T09:30:00.514Z,5.8
2023-02-16T09:35:00.431Z,5.7
2023-02-16T09:40:00.403Z,5.6
2023-02-16T09:45:00.467Z,5.7
2023-02-16T09:50:00.528Z,5.7
2023-02-16T09:55:00.423Z,5.5
2023-02-16T10:05:00.572Z,5.4
2023-02-16T10:10:00.557Z,5.4
2023-02-16T10:15:00.537Z,5.4
2023-02-16T10:20:00.438Z,5.5
2023-02-16T10:25:00.427Z,5.6
2023-02-16T10:30:00.434Z,5.5
2023-02-16T10:35:00.441Z,5.6
2023-02-16T10:40:00.463Z,5.6
2023-02-16T10:45:00.539Z,5.4
2023-02-16T10:50:00.508Z,5.6
2023-02-16T10:55:00.468Z,5.6
2023-02-16T11:00:00.454Z,5.6
2023-02-16T11:05:00.457Z,5.6
2023-02-16T11:15:00.486Z,5.5
2023-02-16T11:20:01.876Z,5.5
2023-02-16T11:25:00.483Z,5.5
2023-02-16T11:30:00.449Z,5.5
2023-02-16T11:35:00.522Z,5.3
2023-02-16T11:40:00.588Z,5.5
2023-02-16T11:45:00.452Z,5.6
2023-02-16T11:50:00.538Z,5.5
2023-02-16T11:55:00.432Z,5.4
2023-02-16T12:00:00.444Z,5.5
2023-02-16T12:05:00.618Z,5.5
2023-02-16T12:10:00.543Z,5.4
2023-02-16T12:15:00.485Z,5.5
2023-02-16T12:20:00.511Z,5.4
2023-02-16T12:25:00.501Z,5.4
2023-02-16T12:30:00.599Z,5.3
2023-02-16T12:35:00.520Z,5.3
2023-02-16T12:40:00.453Z,5.4
2023-02-16T12:45:00.460Z,5.4
2023-02-16T12:50:00.484Z,5.3
2023-02-16T12:55:00.514Z,5.3
2023-02-16T13:00:00.413Z,5.2
2023-02-16T13:05:00.434Z,5.2
2023-02-16T13:10:00.577Z,5.3
2023-02-16T13:15:00.486Z,5.2
2023-02-16T13:20:02.107Z,5.1
2023-02-16T13:25:00.517Z,5.4
2023-02-16T13:30:00.662Z,5.2
2023-02-16T13:35:00.466Z,5.2
2023-02-16T13:40:00.447Z,5
2023-02-16T13:45:00.475Z,5
2023-02-16T13:50:00.565Z,5
2023-02-16T13:55:00.453Z,5
2023-02-16T14:00:00.453Z,5
2023-02-16T14:05:00.493Z,5
2023-02-16T14:10:00.477Z,4.9
2023-02-16T14:15:00.467Z,4.9
2023-02-16T14:20:00.476Z,4.9
2023-02-16T14:25:00.509Z,4.9
2023-02-16T14:30:00.565Z,4.9
2023-02-16T14:35:00.547Z,4.9
2023-02-16T14:40:07.208Z,5.1
2023-02-16T14:45:00.526Z,5.1
2023-02-16T14:50:00.587Z,5
2023-02-16T14:55:00.430Z,5.1
2023-02-16T15:00:00.381Z,5.1
2023-02-16T15:05:00.491Z,5.1
2023-02-16T15:10:00.453Z,5.2
2023-02-16T15:15:00.449Z,5.2
2023-02-16T15:20:00.554Z,5.1
2023-02-16T15:25:00.439Z,5.2
2023-02-16T15:30:00.619Z,5.2
2023-02-16T15:35:01.209Z,5.1
2023-02-16T15:40:24.204Z,5.2
2023-02-16T15:45:00.644Z,5.1
2023-02-16T15:50:00.465Z,5.1
2023-02-16T15:55:00.464Z,5.2
2023-02-16T16:00:00.569Z,5.4
2023-02-16T16:05:00.684Z,5.6
2023-02-16T16:10:00.541Z,5.5
2023-02-16T16:15:00.625Z,5.5
2023-02-16T16:20:00.456Z,5.5
2023-02-16T16:25:00.476Z,5.5
2023-02-16T16:30:00.465Z,5.5
2023-02-16T16:35:00.611Z,5.4
2023-02-16T16:40:00.475Z,5.3
2023-02-16T16:45:00.505Z,5.4
2023-02-16T16:50:00.594Z,5.3
2023-02-16T16:55:00.485Z,5.3
2023-02-16T17:00:00.472Z,5.3
2023-02-16T17:05:00.507Z,5.3
2023-02-16T17:10:00.599Z,5.3
2023-02-16T17:15:00.504Z,5.3
2023-02-16T17:20:00.456Z,5.3
2023-02-16T17:25:00.492Z,5.3
2023-02-16T17:30:00.489Z,5.2
2023-02-16T17:35:00.470Z,5.2
2023-02-16T17:40:00.523Z,5.1
2023-02-16T17:45:00.364Z,5.1
2023-02-16T17:50:00.480Z,5.2
2023-02-16T17:55:00.582Z,5.2
2023-02-16T18:00:00.441Z,5.2
2023-02-16T18:05:00.381Z,5.2
2023-02-16T18:10:00.477Z,5.2
2023-02-16T18:15:00.501Z,5.3
2023-02-16T18:20:00.455Z,5.2
2023-02-16T18:25:00.401Z,5.2
2023-02-16T18:30:00.500Z,5.3
2023-02-16T18:35:00.438Z,5.3
2023-02-16T18:40:00.450Z,5.3
2023-02-16T18:45:00.594Z,5.2
2023-02-16T18:50:00.632Z,5.3
2023-02-16T18:55:00.526Z,5.3
2023-02-16T19:00:00.507Z,5.3
2023-02-16T19:05:00.487Z,5.3
2023-02-16T19:10:00.521Z,5.2
2023-02-16T19:15:00.452Z,5.2
2023-02-16T19:20:00.572Z,5.2
2023-02-16T19:25:00.505Z,5.2
2023-02-16T19:30:00.577Z,5.3
2023-02-16T19:35:00.460Z,5.3
2023-02-16T19:40:00.651Z,5.3
2023-02-16T19:45:00.718Z,5.3
2023-02-16T19:50:00.521Z,5.3
2023-02-16T19:55:00.383Z,5.3
2023-02-16T20:00:00.478Z,5.3
2023-02-16T20:05:00.440Z,5.3
2023-02-16T20:10:00.423Z,5.3
2023-02-16T20:15:00.609Z,5.3
2023-02-16T20:20:00.553Z,5.2
2023-02-16T20:25:00.472Z,5.2
2023-02-16T20:30:00.473Z,5.3
2023-02-16T20:35:00.430Z,5.2
2023-02-16T20:40:00.416Z,5.2
2023-02-16T20:45:00.404Z,5.1
2023-02-16T20:50:00.410Z,5.2
2023-02-16T20:55:00.453Z,5.1
2023-02-16T21:00:00.516Z,5.1
2023-02-16T21:05:00.507Z,5.1
2023-02-16T21:10:00.456Z,5
2023-02-16T21:15:00.542Z,5
2023-02-16T21:20:00.560Z,5
2023-02-16T21:25:00.468Z,4.9
2023-02-16T21:30:00.532Z,4.9
2023-02-16T21:35:00.459Z,4.9
2023-02-16T21:40:00.458Z,4.8
2023-02-16T21:45:00.435Z,4.8
2023-02-16T21:50:00.458Z,4.9
2023-02-16T21:55:00.433Z,4.9
2023-02-16T22:00:00.438Z,4.9
2023-02-16T22:05:00.482Z,4.9
2023-02-16T22:10:00.460Z,4.9
2023-02-16T22:15:00.589Z,4.9
2023-02-16T22:20:00.479Z,4.9
2023-02-16T22:25:00.504Z,4.9
2023-02-16T22:30:00.541Z,4.8
2023-02-16T22:35:00.470Z,4.8
2023-02-16T22:40:00.528Z,4.8
2023-02-16T22:45:00.580Z,4.8
2023-02-16T22:50:00.448Z,4.8
2023-02-16T22:55:00.460Z,4.8
2023-02-16T23:00:00.505Z,4.7
2023-02-16T23:05:00.414Z,4.7
2023-02-16T23:10:00.443Z,4.7
2023-02-16T23:15:00.426Z,4.7
2023-02-16T23:20:00.538Z,4.7
2023-02-16T23:25:00.475Z,4.7
2023-02-16T23:30:01.130Z,4.7
2023-02-16T23:35:00.476Z,4.7
2023-02-16T23:40:00.414Z,4.7
2023-02-16T23:45:00.469Z,4.7
2023-02-16T23:50:00.427Z,4.7
2023-02-16T23:55:00.452Z,4.7
